Time;durP1;ratioP1;P1;durP2;ratioP2;P2;SDS_P1;SDS_P2;PMS_P1;PMS_P2;Temp;Humidity;BMP_temperature;BMP_pressure;BME280_temperature;BME280_humidity;BME280_pressure;Samples;Min_cycle;Max_cycle;Signal;HPM_P1;HPM_P2
2021/10/31 00:02:53;;;;;;;48.70;31.00;;;;;;;8.24;99.92;99865.22;20819037;28;20092;-74
2021/10/31 00:12:56;;;;;;;53.63;31.55;;;;;;;8.27;100.00;99872.97;20819335;28;20053;-74
2021/10/31 00:22:57;;;;;;;49.78;29.40;;;;;;;8.04;100.00;99880.25;20820453;28;20554;-73
2021/10/31 00:32:59;;;;;;;58.00;32.78;;;;;;;8.03;100.00;99894.19;20817269;28;20123;-72
2021/10/31 00:43:01;;;;;;;54.33;30.25;;;;;;;7.92;100.00;99884.75;20816957;28;20111;-74
2021/10/31 00:53:04;;;;;;;55.03;29.40;;;;;;;7.79;100.00;99880.56;20816778;28;20103;-74
2021/10/31 01:03:05;;;;;;;48.47;26.58;;;;;;;7.60;100.00;99890.38;20815995;28;20041;-74
2021/10/31 01:13:24;;;;;;;54.88;29.35;;;;;;;7.54;100.00;99871.34;20816141;28;20053;-75
2021/10/31 01:23:56;;;;;;;48.42;29.23;;;;;;;7.47;100.00;99873.16;20816931;28;20104;-74
2021/10/31 01:34:09;;;;;;;46.03;28.08;;;;;;;7.40;100.00;99877.56;20814745;28;20395;-74
2021/10/31 01:44:32;;;;;;;51.55;28.95;;;;;;;7.45;100.00;99875.78;20830420;28;20099;-74
2021/10/31 01:54:40;;;;;;;47.35;27.33;;;;;;;7.30;100.00;99865.53;20829750;28;20186;-75
2021/10/31 02:04:49;;;;;;;50.95;30.48;;;;;;;7.29;100.00;99883.78;20828255;28;20556;-74
2021/10/31 02:14:51;;;;;;;43.65;27.20;;;;;;;7.28;100.00;99885.53;20828164;28;20455;-75
2021/10/31 02:24:54;;;;;;;46.80;29.00;;;;;;;7.23;100.00;99865.59;20826656;28;20103;-74
2021/10/31 02:34:57;;;;;;;47.35;27.63;;;;;;;7.27;100.00;99867.31;20825932;28;20054;-75
2021/10/31 02:44:58;;;;;;;48.50;27.92;;;;;;;7.16;100.00;99863.06;20826657;28;20487;-73
2021/10/31 02:55:12;;;;;;;47.55;27.52;;;;;;;7.15;100.00;99844.88;20823677;28;20400;-74
2021/10/31 03:05:14;;;;;;;43.22;25.38;;;;;;;7.18;100.00;99856.09;20824254;28;20046;-74
2021/10/31 03:15:17;;;;;;;50.17;28.83;;;;;;;7.24;100.00;99854.34;20823310;28;20111;-72
2021/10/31 03:25:18;;;;;;;44.58;26.90;;;;;;;7.29;100.00;99843.00;20822409;28;20445;-73
2021/10/31 03:35:20;;;;;;;48.13;27.85;;;;;;;7.46;100.00;99846.22;20821963;28;20123;-74
2021/10/31 03:45:21;;;;;;;49.80;28.55;;;;;;;7.53;100.00;99846.19;20820088;28;20054;-75
2021/10/31 03:55:23;;;;;;;43.42;25.70;;;;;;;7.58;100.00;99839.16;20819043;28;20417;-75
2021/10/31 04:05:25;;;;;;;42.40;27.00;;;;;;;7.64;100.00;99839.09;20819379;28;20101;-73
2021/10/31 04:15:26;;;;;;;49.95;29.33;;;;;;;7.77;100.00;99850.22;20818057;28;20057;-73
2021/10/31 04:25:28;;;;;;;50.55;30.60;;;;;;;7.92;100.00;99834.38;20819116;28;20057;-73
2021/10/31 04:35:29;;;;;;;48.38;28.55;;;;;;;7.95;100.00;99835.19;20817162;28;20103;-73
2021/10/31 04:45:31;;;;;;;45.53;28.73;;;;;;;7.85;100.00;99823.16;20815970;28;20118;-73
2021/10/31 04:55:34;;;;;;;46.97;28.55;;;;;;;7.85;100.00;99817.94;20817103;28;20049;-74
2021/10/31 05:05:36;;;;;;;49.88;28.38;;;;;;;7.88;100.00;99817.91;20816018;28;20049;-75
2021/10/31 05:15:38;;;;;;;42.78;26.85;;;;;;;7.82;100.00;99810.19;20827390;28;20050;-75
2021/10/31 05:25:40;;;;;;;38.50;25.52;;;;;;;7.91;100.00;99814.41;20832167;28;20099;-75
2021/10/31 05:35:41;;;;;;;41.85;25.23;;;;;;;8.00;100.00;99818.59;20829784;28;20528;-74
2021/10/31 05:45:43;;;;;;;51.13;31.05;;;;;;;8.08;100.00;99808.94;20829921;28;20065;-75
2021/10/31 05:55:45;;;;;;;53.72;32.13;;;;;;;8.07;100.00;99805.47;20829818;28;20053;-74
2021/10/31 06:05:48;;;;;;;53.65;30.35;;;;;;;8.10;100.00;99799.34;20828584;28;20045;-73
2021/10/31 06:15:49;;;;;;;47.38;28.38;;;;;;;8.20;100.00;99793.13;20830202;28;20426;-76
2021/10/31 06:25:51;;;;;;;46.35;28.33;;;;;;;8.29;100.00;99773.81;20825112;28;20045;-74
2021/10/31 06:35:53;;;;;;;43.45;27.25;;;;;;;8.27;100.00;99763.41;20825336;28;20046;-74
2021/10/31 06:45:55;;;;;;;46.75;29.98;;;;;;;8.17;100.00;99761.84;20825524;28;20091;-73
2021/10/31 06:55:56;;;;;;;44.67;28.23;;;;;;;8.15;100.00;99774.06;20823971;28;20061;-74
2021/10/31 07:06:01;;;;;;;43.15;28.88;;;;;;;8.24;100.00;99760.88;20838794;28;20083;-73
2021/10/31 07:16:04;;;;;;;48.08;29.33;;;;;;;8.32;100.00;99755.53;20766659;28;20483;-73
2021/10/31 07:26:07;;;;;;;45.47;29.42;;;;;;;8.34;100.00;99754.63;20793617;28;20505;-73
2021/10/31 07:36:08;;;;;;;48.75;30.25;;;;;;;8.39;100.00;99733.72;20808992;28;20077;-73
2021/10/31 07:46:10;;;;;;;51.08;32.35;;;;;;;8.57;100.00;99725.53;20730623;28;20061;-73
2021/10/31 07:56:15;;;;;;;55.45;35.47;;;;;;;8.84;100.00;99710.25;20771201;28;20072;-73
2021/10/31 08:06:17;;;;;;;54.65;35.47;;;;;;;9.25;100.00;99725.94;20755789;28;20056;-72
2021/10/31 08:16:22;;;;;;;57.25;33.95;;;;;;;9.68;100.00;99714.53;20765349;28;20658;-71
2021/10/31 08:26:24;;;;;;;50.78;33.17;;;;;;;10.33;100.00;99703.38;20767620;28;20046;-68
2021/10/31 08:36:26;;;;;;;51.92;32.88;;;;;;;10.88;100.00;99707.16;20772746;28;20123;-69
2021/10/31 08:46:30;;;;;;;46.15;31.02;;;;;;;11.50;100.00;99680.84;20807574;28;20095;-69
2021/10/31 08:56:32;;;;;;;37.92;27.23;;;;;;;11.96;98.65;99668.91;20808927;28;20050;-68
2021/10/31 09:06:33;;;;;;;34.05;23.20;;;;;;;12.47;96.48;99649.66;20807059;28;20080;-69
2021/10/31 09:16:35;;;;;;;29.13;20.23;;;;;;;12.83;95.17;99629.06;20752500;28;20057;-68
2021/10/31 09:26:37;;;;;;;23.00;16.52;;;;;;;12.99;94.19;99610.97;20726759;28;20050;-68
2021/10/31 09:36:38;;;;;;;22.38;14.10;;;;;;;13.17;93.32;99621.69;20725917;28;20062;-69
2021/10/31 09:46:40;;;;;;;21.20;13.00;;;;;;;13.68;92.35;99610.91;20726029;28;20442;-68
2021/10/31 09:56:42;;;;;;;15.38;9.90;;;;;;;14.07;91.58;99607.53;20728169;28;20123;-68
2021/10/31 10:06:52;;;;;;;13.25;9.85;;;;;;;14.27;90.39;99601.38;20738617;28;20041;-68
2021/10/31 10:17:04;;;;;;;14.23;9.73;;;;;;;14.34;90.24;99572.09;20796814;28;20469;-68
2021/10/31 10:27:08;;;;;;;19.85;11.52;;;;;;;14.34;90.36;99542.28;20819040;28;20053;-68
2021/10/31 10:37:19;;;;;;;18.65;8.93;;;;;;;14.57;89.48;99528.97;20819146;28;20095;-68
2021/10/31 10:47:22;;;;;;;14.25;8.65;;;;;;;14.82;88.20;99525.19;20818203;28;20056;-68
2021/10/31 10:57:26;;;;;;;12.82;7.68;;;;;;;14.87;87.61;99515.28;20815896;28;20052;-68
2021/10/31 11:07:47;;;;;;;9.25;6.22;;;;;;;14.82;87.69;99497.03;20778603;28;20103;-69
2021/10/31 11:17:50;;;;;;;10.10;6.28;;;;;;;14.90;89.52;99475.59;20787485;28;20423;-68
2021/10/31 11:27:54;;;;;;;6.97;4.57;;;;;;;15.16;89.56;99462.91;20733266;28;20120;-69
2021/10/31 11:38:03;;;;;;;8.80;3.60;;;;;;;15.38;87.11;99434.53;20732069;28;20054;-69
2021/10/31 11:48:18;;;;;;;6.43;3.90;;;;;;;15.51;87.99;99414.50;20731940;28;20458;-68
2021/10/31 11:58:24;;;;;;;;;;;;;;;15.77;87.08;99391.22;20731665;28;20050;-68
2021/10/31 12:08:43;;;;;;;6.43;2.60;;;;;;;16.07;83.20;99365.78;20810427;28;19920;-68
2021/10/31 12:18:47;;;;;;;4.60;1.90;;;;;;;16.62;80.26;99360.09;20810539;28;20483;-68
2021/10/31 12:28:49;;;;;;;3.70;1.55;;;;;;;16.41;80.63;99358.63;20809976;28;20489;-68
2021/10/31 12:38:50;;;;;;;4.70;2.30;;;;;;;16.47;80.02;99328.38;20809256;28;20057;-69
2021/10/31 12:49:04;;;;;;;4.20;2.00;;;;;;;16.42;81.09;99320.72;20810668;28;20049;-69
2021/10/31 12:59:11;;;;;;;6.25;2.08;;;;;;;16.58;79.32;99310.97;20809296;28;20053;-70
2021/10/31 13:09:13;;;;;;;6.05;3.40;;;;;;;16.81;80.20;99290.31;20808965;28;20041;-70
2021/10/31 13:19:14;;;;;;;3.70;1.95;;;;;;;16.90;79.11;99253.59;20731324;28;20046;-69
2021/10/31 13:29:16;;;;;;;4.70;1.95;;;;;;;16.81;77.50;99253.28;20727141;28;20050;-69
2021/10/31 13:39:18;;;;;;;5.68;2.40;;;;;;;16.78;81.89;99227.06;20740542;28;20099;-69
2021/10/31 13:49:22;;;;;;;4.53;1.98;;;;;;;16.75;81.76;99217.50;20740951;28;20058;-69
2021/10/31 13:59:26;;;;;;;3.93;1.97;;;;;;;16.76;80.00;99210.41;20740732;28;20050;-69
2021/10/31 14:09:27;;;;;;;4.67;2.60;;;;;;;16.58;82.59;99220.28;20739565;28;20088;-69
2021/10/31 14:19:29;;;;;;;7.20;2.55;;;;;;;16.19;85.30;99218.16;20797712;28;20110;-69
2021/10/31 14:29:30;;;;;;;5.40;2.90;;;;;;;15.99;85.71;99206.09;20748209;28;20060;-69
2021/10/31 14:39:35;;;;;;;5.80;2.90;;;;;;;15.92;86.47;99217.97;20738353;28;20498;-69
2021/10/31 14:49:36;;;;;;;;;;;;;;;15.78;88.30;99205.53;20736355;28;20401;-69
2021/10/31 14:59:50;;;;;;;5.13;2.95;;;;;;;15.79;87.34;99180.84;20736456;28;19925;-69
2021/10/31 15:09:52;;;;;;;6.43;3.38;;;;;;;15.60;89.65;99180.97;20745880;28;20489;-69
2021/10/31 15:19:54;;;;;;;7.40;3.90;;;;;;;15.47;89.91;99162.34;20816301;28;20045;-69
2021/10/31 15:29:58;;;;;;;6.38;3.65;;;;;;;15.24;90.56;99131.13;20815065;28;20522;-69
2021/10/31 15:39:59;;;;;;;9.93;6.37;;;;;;;14.98;92.86;99117.56;20805745;28;20100;-69
2021/10/31 15:50:01;;;;;;;14.25;8.63;;;;;;;14.61;93.84;99116.94;20739923;28;20053;-69
2021/10/31 16:00:05;;;;;;;12.93;8.32;;;;;;;14.42;95.22;99116.16;20811222;28;20060;-69
2021/10/31 16:10:07;;;;;;;13.97;9.90;;;;;;;14.21;96.03;99104.09;20800575;28;20498;-69
2021/10/31 16:20:09;;;;;;;17.20;11.95;;;;;;;14.10;96.44;99109.91;20804549;28;20045;-69
2021/10/31 16:30:11;;;;;;;19.27;13.52;;;;;;;13.86;97.45;99104.09;20808719;28;20041;-73
2021/10/31 16:40:15;;;;;;;19.52;11.25;;;;;;;13.78;98.54;99106.25;20808897;28;20247;-70
2021/10/31 16:50:18;;;;;;;18.25;13.50;;;;;;;13.66;98.88;99102.44;20791028;28;20155;-70
2021/10/31 17:00:21;;;;;;;22.75;14.82;;;;;;;13.56;98.87;99111.72;20805685;28;20488;-70
2021/10/31 17:10:27;;;;;;;21.90;13.70;;;;;;;13.50;99.43;99112.84;20813835;28;20111;-70
2021/10/31 17:20:28;;;;;;;17.85;12.00;;;;;;;13.30;99.25;99076.16;20743504;28;20470;-71
2021/10/31 17:30:30;;;;;;;20.65;13.68;;;;;;;13.15;99.94;99080.31;20740917;28;20093;-71
2021/10/31 17:40:33;;;;;;;20.45;15.15;;;;;;;13.03;100.00;99076.50;20740923;28;20104;-70
2021/10/31 17:50:35;;;;;;;21.55;15.68;;;;;;;12.85;100.00;99077.38;20740168;28;20404;-71
2021/10/31 18:00:38;;;;;;;20.58;16.25;;;;;;;12.53;100.00;99058.66;20738668;28;20258;-76
2021/10/31 18:10:40;;;;;;;27.75;21.40;;;;;;;12.26;100.00;99073.00;20746138;28;20514;-70
2021/10/31 18:20:42;;;;;;;26.77;20.17;;;;;;;12.16;100.00;99066.47;20819466;28;20173;-74
2021/10/31 18:30:43;;;;;;;21.27;13.45;;;;;;;11.95;100.00;99068.25;20818052;28;20099;-72
2021/10/31 18:40:46;;;;;;;25.08;19.13;;;;;;;11.68;100.00;99051.88;20817313;28;20050;-77
2021/10/31 18:50:48;;;;;;;15.77;12.70;;;;;;;11.50;100.00;99046.47;20818198;28;20046;-73
2021/10/31 19:00:50;;;;;;;26.70;19.95;;;;;;;11.41;100.00;99028.50;20814926;28;20053;-69
2021/10/31 19:10:52;;;;;;;25.95;19.20;;;;;;;11.29;100.00;99037.72;20806219;28;20045;-69
2021/10/31 19:20:58;;;;;;;28.08;20.55;;;;;;;11.13;100.00;99036.63;20733573;28;20312;-69
2021/10/31 19:31:03;;;;;;;29.90;21.92;;;;;;;10.89;100.00;99033.22;20732528;28;20053;-70
2021/10/31 19:41:09;;;;;;;40.58;25.92;;;;;;;10.83;100.00;99025.59;20731077;28;20096;-73
2021/10/31 19:51:10;;;;;;;34.25;24.15;;;;;;;10.73;100.00;99035.56;20731505;28;20465;-70
2021/10/31 20:01:12;;;;;;;36.25;24.85;;;;;;;10.60;100.00;99020.41;20730838;28;20499;-74
2021/10/31 20:11:14;;;;;;;42.38;28.23;;;;;;;10.48;100.00;99012.06;20774514;28;20434;-74
2021/10/31 20:21:15;;;;;;;45.17;30.00;;;;;;;10.38;100.00;99015.09;20730572;28;20572;-70
2021/10/31 20:31:17;;;;;;;46.00;30.42;;;;;;;10.23;99.70;99006.88;20780740;28;20052;-70
2021/10/31 20:41:19;;;;;;;50.47;33.30;;;;;;;10.16;99.94;99009.78;20807142;28;20057;-70
2021/10/31 20:51:22;;;;;;;51.95;36.45;;;;;;;10.15;99.40;99019.34;20727950;28;20050;-73
2021/10/31 21:01:25;;;;;;;55.72;38.33;;;;;;;10.17;99.51;99011.47;20727334;28;20096;-75
2021/10/31 21:11:27;;;;;;;52.58;37.72;;;;;;;10.26;99.76;99004.19;20747159;28;20506;-70
2021/10/31 21:21:28;;;;;;;52.85;36.83;;;;;;;10.46;99.35;99002.59;20808185;28;20498;-70
2021/10/31 21:31:30;;;;;;;44.05;31.20;;;;;;;10.69;99.50;99020.03;20807694;28;20095;-72
2021/10/31 21:41:36;;;;;;;42.28;30.58;;;;;;;10.88;99.76;99010.56;20807513;28;20563;-71
2021/10/31 21:51:41;;;;;;;46.65;35.30;;;;;;;10.96;100.00;99000.63;20790719;28;20422;-74
2021/10/31 22:01:44;;;;;;;59.28;41.00;;;;;;;11.17;100.00;99024.28;20821177;28;20038;-72
2021/10/31 22:11:47;;;;;;;41.50;29.13;;;;;;;11.43;100.00;99031.91;20823085;28;20411;-73
2021/10/31 22:21:48;;;;;;;23.85;17.27;;;;;;;11.71;100.00;99038.63;20820935;28;20093;-71
2021/10/31 22:31:50;;;;;;;13.35;6.95;;;;;;;12.49;100.00;99043.13;20818233;28;20098;-71
2021/10/31 22:41:52;;;;;;;11.70;5.57;;;;;;;12.95;100.00;99018.22;20817145;28;20050;-71
2021/10/31 22:51:53;;;;;;;9.57;4.85;;;;;;;12.96;100.00;98996.25;20819201;28;20456;-71
2021/10/31 23:01:55;;;;;;;9.18;4.13;;;;;;;13.14;100.00;98972.66;20816242;28;20111;-71
2021/10/31 23:11:56;;;;;;;9.43;5.10;;;;;;;13.09;100.00;98989.50;20819534;28;20552;-70
2021/10/31 23:21:58;;;;;;;10.15;5.75;;;;;;;12.95;100.00;98999.81;20822883;28;20107;-70
2021/10/31 23:32:00;;;;;;;11.73;5.80;;;;;;;13.20;100.00;99009.16;20821626;28;20049;-71
2021/10/31 23:42:01;;;;;;;8.27;5.22;;;;;;;13.22;99.83;99031.84;20823826;28;20061;-70
2021/10/31 23:52:03;;;;;;;9.38;5.40;;;;;;;13.05;99.29;99026.50;20821075;28;20075;-70
